HDAM/JIB METAR and TAF weather

Enter ICAO airport designator
Station Type Date Time Source
HDAM METAR 2020/02/25 10:00 UTC NOAA

HDAM 251000Z 08009KT 9999 FEW023 30/23 Q1014


Station Type Date Time Source
HDAM Decoded METAR 2020/02/25 10:00 UTC NOAA

Djibouti \ Ambouli, Djibouti (HDAM) 11-33N 043-10E
Feb 25, 2020 - 05:00 AM EST / 2020.02.25 1000 UTC
Wind: from the E (080 degrees) at 10 MPH (9 KT):0
Visibility: greater than 7 mile(s):0
Sky conditions: mostly clear
Temperature: 86 F (30 C)
Heat index: 93.4 F (34.1 C):1
Dew Point: 73 F (23 C)
Relative Humidity: 66%
Pressure (altimeter): 29.94 in. Hg (1014 hPa)
ob: HDAM 251000Z 08009KT 9999 FEW023 30/23 Q1014
cycle: 10

Station Type Date Time Source
HDAM TAF 2020/02/25 12:54 UTC NOAA

TAF TAF HDAM 251100Z 2512/2612 08010KT 9999 SCT023
BECMG 2515/2518 VR05KT FEW020
BECMG 2600/2612 00000KT SCT020

Example: see airport list